Time;durP1;ratioP1;P1;durP2;ratioP2;P2;SDS_P1;SDS_P2;PMS_P1;PMS_P2;Temp;Humidity;BMP_temperature;BMP_pressure;BME280_temperature;BME280_humidity;BME280_pressure;Samples;Min_cycle;Max_cycle;Signal;HPM_P1;HPM_P2
2022/05/19 00:01:51;;;;;;;31.52;16.15;;;14.50;99.90;;;;;;5085308;28;20076;-81
2022/05/19 00:04:16;;;;;;;24.27;15.88;;;14.50;99.90;;;;;;5068961;28;20052;-81
2022/05/19 00:06:42;;;;;;;21.38;15.32;;;14.60;99.90;;;;;;5068191;28;20044;-81
2022/05/19 00:09:09;;;;;;;29.92;17.48;;;14.70;99.90;;;;;;5087092;28;20054;-81
2022/05/19 00:11:35;;;;;;;23.35;17.65;;;14.70;99.90;;;;;;5085057;28;20047;-81
2022/05/19 00:14:01;;;;;;;26.15;17.20;;;14.70;99.90;;;;;;5086951;28;20040;-81
2022/05/19 00:16:27;;;;;;;29.73;17.42;;;14.70;99.90;;;;;;5086995;28;20032;-81
2022/05/19 00:18:53;;;;;;;31.42;17.75;;;14.70;99.90;;;;;;5086447;28;20530;-81
2022/05/19 00:21:19;;;;;;;25.50;18.85;;;14.70;99.90;;;;;;5087079;28;20119;-81
2022/05/19 00:23:45;;;;;;;24.15;17.00;;;14.80;99.90;;;;;;5084923;28;20086;-81
2022/05/19 00:26:11;;;;;;;27.75;18.00;;;14.80;99.90;;;;;;5085345;28;20063;-81
2022/05/19 00:28:37;;;;;;;25.60;17.20;;;14.80;99.90;;;;;;5086482;28;20117;-81
2022/05/19 00:31:02;;;;;;;29.42;19.52;;;14.80;99.90;;;;;;5087868;28;20123;-81
2022/05/19 00:33:28;;;;;;;31.70;19.95;;;15.10;99.90;;;;;;5090058;28;20044;-81
2022/05/19 00:35:54;;;;;;;31.17;20.17;;;14.80;99.90;;;;;;5088517;28;20048;-81
2022/05/19 00:38:20;;;;;;;27.25;18.75;;;14.70;99.90;;;;;;5089442;28;20075;-81
2022/05/19 00:40:51;;;;;;;33.28;21.30;;;14.70;99.90;;;;;;5071414;28;20400;-81
2022/05/19 00:43:30;;;;;;;28.38;21.48;;;14.70;99.90;;;;;;5089289;28;20113;-81
2022/05/19 00:46:20;;;;;;;30.75;21.55;;;14.70;99.90;;;;;;5071669;28;20053;-81
2022/05/19 00:48:58;;;;;;;31.05;21.95;;;14.70;99.90;;;;;;5071580;28;20042;-81
2022/05/19 00:51:40;;;;;;;34.75;23.60;;;14.70;99.90;;;;;;5072461;28;20478;-81
2022/05/19 00:54:09;;;;;;;32.58;24.95;;;14.70;99.90;;;;;;5090049;28;20040;-81
2022/05/19 00:56:43;;;;;;;36.78;25.00;;;14.80;99.90;;;;;;5088823;28;20075;-81
2022/05/19 00:59:11;;;;;;;32.95;24.60;;;14.70;99.90;;;;;;5088533;28;20046;-81
2022/05/19 01:01:42;;;;;;;30.15;21.80;;;14.70;99.90;;;;;;5073297;28;20047;-81
2022/05/19 01:04:25;;;;;;;36.00;25.02;;;14.60;99.90;;;;;;5090531;28;20048;-82
2022/05/19 01:06:57;;;;;;;34.67;25.35;;;14.60;99.90;;;;;;5089181;28;20075;-81
2022/05/19 01:09:24;;;;;;;30.70;24.02;;;14.60;99.90;;;;;;5090053;28;20040;-81
2022/05/19 01:11:54;;;;;;;33.90;25.08;;;14.60;99.90;;;;;;5088523;28;20570;-81
2022/05/19 01:14:19;;;;;;;35.55;24.08;;;14.60;99.90;;;;;;5088416;28;20040;-81
2022/05/19 01:16:45;;;;;;;38.03;24.48;;;14.50;99.90;;;;;;5090130;28;20393;-81
2022/05/19 01:19:27;;;;;;;31.52;23.02;;;14.50;99.90;;;;;;5089074;28;20090;-80
2022/05/19 01:21:57;;;;;;;31.17;23.13;;;14.50;99.90;;;;;;5088794;28;20052;-81
2022/05/19 01:24:31;;;;;;;32.58;23.23;;;14.50;99.90;;;;;;5088050;28;20494;-81
2022/05/19 01:26:57;;;;;;;31.40;23.35;;;14.50;99.90;;;;;;5089286;28;20566;-81
2022/05/19 01:29:26;;;;;;;30.48;25.30;;;14.40;99.90;;;;;;5089330;28;20075;-81
2022/05/19 01:31:54;;;;;;;30.10;22.33;;;14.50;99.90;;;;;;5088744;28;20040;-81
2022/05/19 01:34:24;;;;;;;37.03;23.30;;;14.50;99.90;;;;;;5089045;28;20056;-81
2022/05/19 01:36:50;;;;;;;30.73;21.80;;;14.40;99.90;;;;;;5087525;28;20056;-81
2022/05/19 01:39:23;;;;;;;33.75;23.40;;;14.40;99.90;;;;;;5089369;28;20046;-81
2022/05/19 01:42:13;;;;;;;35.15;23.80;;;14.40;99.90;;;;;;5089128;28;20032;-81
2022/05/19 01:44:59;;;;;;;33.60;24.70;;;14.40;99.90;;;;;;5086887;28;20047;-81
2022/05/19 01:47:44;;;;;;;32.78;24.85;;;14.30;99.90;;;;;;5087623;28;20568;-81
2022/05/19 01:50:24;;;;;;;34.78;26.40;;;14.30;99.90;;;;;;5087156;28;20123;-81
2022/05/19 01:53:00;;;;;;;36.88;26.23;;;14.30;99.90;;;;;;5087587;28;20078;-81
2022/05/19 01:55:43;;;;;;;40.15;26.80;;;14.30;99.90;;;;;;5089131;28;20409;-81
2022/05/19 01:58:23;;;;;;;36.90;26.63;;;14.30;99.90;;;;;;5086885;28;20052;-81
2022/05/19 02:00:54;;;;;;;39.30;30.25;;;14.30;99.90;;;;;;5087789;28;20101;-81
2022/05/19 02:03:50;;;;;;;43.17;30.05;;;14.30;99.90;;;;;;5088573;28;20143;-81
2022/05/19 02:06:19;;;;;;;44.65;29.00;;;14.30;99.90;;;;;;5088215;28;20042;-81
2022/05/19 02:08:53;;;;;;;45.38;29.55;;;14.40;99.90;;;;;;5088889;28;20530;-80
2022/05/19 02:11:24;;;;;;;39.80;28.83;;;14.50;99.90;;;;;;5088201;28;20048;-81
2022/05/19 02:13:50;;;;;;;43.25;31.70;;;14.40;99.90;;;;;;5088669;28;20071;-81
2022/05/19 02:16:18;;;;;;;45.95;32.03;;;14.50;99.90;;;;;;5088591;28;20435;-81
2022/05/19 02:18:46;;;;;;;46.33;34.10;;;14.60;99.90;;;;;;5070184;28;20075;-81
2022/05/19 02:21:12;;;;;;;46.35;34.55;;;14.60;99.90;;;;;;5088896;28;20048;-81
2022/05/19 02:23:40;;;;;;;50.67;35.15;;;14.70;99.90;;;;;;5087669;28;20048;-81
2022/05/19 02:26:06;;;;;;;53.45;35.72;;;14.70;99.90;;;;;;5087379;28;20165;-81
2022/05/19 02:28:34;;;;;;;54.00;35.65;;;14.80;99.90;;;;;;5088030;28;20507;-81
2022/05/19 02:31:00;;;;;;;54.13;37.25;;;14.80;99.90;;;;;;5086989;28;20048;-81
2022/05/19 02:33:26;;;;;;;49.92;36.38;;;14.80;99.90;;;;;;5087370;28;20150;-81
2022/05/19 02:35:52;;;;;;;59.60;37.83;;;14.80;99.90;;;;;;5088040;28;20048;-81
2022/05/19 02:38:20;;;;;;;51.58;37.78;;;14.80;99.90;;;;;;5087223;28;20267;-81
2022/05/19 02:40:46;;;;;;;53.70;36.83;;;14.90;99.90;;;;;;5086272;28;20052;-81
2022/05/19 02:43:14;;;;;;;50.22;38.60;;;14.90;99.90;;;;;;5086574;28;20048;-81
2022/05/19 02:45:40;;;;;;;53.75;37.53;;;14.90;99.90;;;;;;5086730;28;20438;-81
2022/05/19 02:48:07;;;;;;;55.08;38.67;;;14.90;99.90;;;;;;5069447;28;20090;-81
2022/05/19 02:50:33;;;;;;;55.50;38.17;;;14.90;99.90;;;;;;5086404;28;20047;-81
2022/05/19 02:52:59;;;;;;;58.63;38.17;;;14.90;99.90;;;;;;5086078;28;20040;-81
2022/05/19 02:55:25;;;;;;;48.30;37.90;;;15.00;99.90;;;;;;5069781;28;20048;-81
2022/05/19 02:57:51;;;;;;;54.58;39.08;;;15.00;99.90;;;;;;5087361;28;20100;-80
2022/05/19 03:00:21;;;;;;;49.95;38.60;;;15.00;99.90;;;;;;5086666;28;20066;-81
2022/05/19 03:02:47;;;;;;;51.35;38.08;;;15.00;99.90;;;;;;5087918;28;20116;-81
2022/05/19 03:05:16;;;;;;;54.63;38.42;;;15.10;99.90;;;;;;5089971;28;20055;-81
2022/05/19 03:07:41;;;;;;;53.00;35.30;;;15.00;99.90;;;;;;5087808;28;20421;-81
2022/05/19 03:10:08;;;;;;;52.75;35.50;;;15.10;99.90;;;;;;5086427;28;20132;-81
2022/05/19 03:12:33;;;;;;;52.78;34.97;;;15.10;99.90;;;;;;5087864;28;20051;-81
2022/05/19 03:14:59;;;;;;;49.08;35.70;;;15.10;99.90;;;;;;5087062;28;20040;-80
2022/05/19 03:17:25;;;;;;;51.92;34.55;;;15.20;99.90;;;;;;5069702;28;20526;-81
2022/05/19 03:19:56;;;;;;;51.28;33.75;;;15.20;99.90;;;;;;5085878;28;20127;-81
2022/05/19 03:22:22;;;;;;;50.70;35.35;;;15.20;99.90;;;;;;5085898;28;20083;-81
2022/05/19 03:24:48;;;;;;;48.05;33.80;;;15.20;99.90;;;;;;5087211;28;20040;-81
2022/05/19 03:27:14;;;;;;;48.90;34.38;;;15.30;99.90;;;;;;5085339;28;20044;-81
2022/05/19 03:29:40;;;;;;;51.65;33.63;;;16.00;99.90;;;;;;5087612;28;20044;-81
2022/05/19 03:32:06;;;;;;;44.17;31.15;;;15.90;99.90;;;;;;5086554;28;20424;-81
2022/05/19 03:34:32;;;;;;;46.45;32.28;;;15.40;99.90;;;;;;5087424;28;20048;-81
2022/05/19 03:37:02;;;;;;;44.78;31.63;;;15.40;99.90;;;;;;5085819;28;20074;-81
2022/05/19 03:39:28;;;;;;;47.45;31.38;;;15.40;99.90;;;;;;5085859;28;20055;-81
2022/05/19 03:41:54;;;;;;;48.97;32.85;;;15.40;99.90;;;;;;5085868;28;20123;-80
2022/05/19 03:44:20;;;;;;;48.03;31.38;;;15.40;99.90;;;;;;5051515;28;20501;-81
2022/05/19 03:46:45;;;;;;;49.97;32.83;;;15.50;99.90;;;;;;5085883;28;20048;-81
2022/05/19 03:49:13;;;;;;;51.40;34.17;;;15.40;99.90;;;;;;5069021;28;20054;-81
2022/05/19 03:51:40;;;;;;;52.95;35.22;;;15.50;99.90;;;;;;5069423;28;20048;-81
2022/05/19 03:54:06;;;;;;;53.28;34.45;;;15.50;99.90;;;;;;5085572;28;20125;-80
2022/05/19 03:56:32;;;;;;;55.47;34.58;;;15.50;99.90;;;;;;5085916;28;20111;-81
2022/05/19 03:58:58;;;;;;;56.42;35.88;;;15.80;99.90;;;;;;5086816;28;20115;-81
2022/05/19 04:01:24;;;;;;;53.90;36.58;;;15.60;99.90;;;;;;5086732;28;20553;-81
2022/05/19 04:03:50;;;;;;;64.28;38.33;;;15.60;99.90;;;;;;5087224;28;20044;-81
2022/05/19 04:06:17;;;;;;;56.30;36.42;;;15.70;99.90;;;;;;5087733;28;20032;-81
2022/05/19 04:08:43;;;;;;;63.53;39.97;;;15.70;99.90;;;;;;5091162;28;20544;-81
2022/05/19 04:11:10;;;;;;;57.15;36.78;;;15.70;99.90;;;;;;5090787;28;20044;-81
2022/05/19 04:13:35;;;;;;;59.15;38.42;;;15.70;99.90;;;;;;5091331;28;20047;-81
2022/05/19 04:16:01;;;;;;;56.17;37.65;;;15.80;99.90;;;;;;5089374;28;20047;-81
2022/05/19 04:18:27;;;;;;;53.75;37.38;;;15.80;99.90;;;;;;5089419;28;20044;-81
2022/05/19 04:20:53;;;;;;;51.58;37.70;;;15.80;99.90;;;;;;5090844;28;20044;-81
2022/05/19 04:23:22;;;;;;;56.33;38.45;;;15.90;99.90;;;;;;5090364;28;20422;-81
2022/05/19 04:25:48;;;;;;;63.47;37.85;;;15.90;99.90;;;;;;5090806;28;20044;-81
2022/05/19 04:28:14;;;;;;;58.80;39.40;;;15.90;99.90;;;;;;5090098;28;20051;-82
2022/05/19 04:30:41;;;;;;;60.10;38.15;;;15.90;99.90;;;;;;5072246;28;20044;-83
2022/05/19 04:33:07;;;;;;;55.42;36.88;;;16.00;99.90;;;;;;5088527;28;20044;-80
2022/05/19 04:35:33;;;;;;;51.40;37.25;;;16.00;99.90;;;;;;5088492;28;20063;-81
2022/05/19 04:38:00;;;;;;;52.67;36.55;;;16.60;99.90;;;;;;5090546;28;20040;-81
2022/05/19 04:40:27;;;;;;;51.25;35.33;;;16.00;99.90;;;;;;5089727;28;20043;-81
2022/05/19 04:42:55;;;;;;;57.33;37.78;;;16.10;99.90;;;;;;5090227;28;20550;-81
2022/05/19 04:45:21;;;;;;;46.72;34.38;;;16.10;99.90;;;;;;5089591;28;20108;-81
2022/05/19 04:47:47;;;;;;;50.53;36.70;;;16.10;99.90;;;;;;5090207;28;20454;-81
2022/05/19 04:50:13;;;;;;;55.40;35.70;;;16.20;99.90;;;;;;5071337;28;20044;-80
2022/05/19 04:52:39;;;;;;;54.90;36.85;;;16.20;99.90;;;;;;5071460;28;20047;-81
2022/05/19 04:55:07;;;;;;;52.55;36.67;;;16.30;99.90;;;;;;5071731;28;20454;-80
2022/05/19 04:57:33;;;;;;;55.55;36.60;;;16.40;99.90;;;;;;5071166;28;20044;-81
2022/05/19 04:59:58;;;;;;;48.13;33.58;;;16.60;99.90;;;;;;5089726;28;20048;-81
2022/05/19 05:02:24;;;;;;;48.75;35.10;;;16.60;99.90;;;;;;5075208;28;20515;-80
2022/05/19 05:04:50;;;;;;;46.53;33.78;;;16.60;99.90;;;;;;5090466;28;20055;-80
2022/05/19 05:07:15;;;;;;;50.88;34.38;;;16.60;99.90;;;;;;5092746;28;20040;-82
2022/05/19 05:09:41;;;;;;;44.40;34.33;;;16.80;99.90;;;;;;5094016;28;20040;-82
2022/05/19 05:12:08;;;;;;;50.75;35.95;;;16.80;99.90;;;;;;5093274;28;20404;-82
2022/05/19 05:14:33;;;;;;;48.17;34.47;;;17.00;99.90;;;;;;5088224;28;20101;-82
2022/05/19 05:16:59;;;;;;;45.38;33.97;;;17.00;99.90;;;;;;5088370;28;20036;-82
2022/05/19 05:19:26;;;;;;;43.00;31.45;;;17.10;99.90;;;;;;5089018;28;20501;-80
2022/05/19 05:21:55;;;;;;;46.65;31.80;;;17.20;99.90;;;;;;5088706;28;20048;-83
2022/05/19 05:24:22;;;;;;;44.95;32.22;;;17.30;99.90;;;;;;5089135;28;20066;-82
2022/05/19 05:26:47;;;;;;;49.85;32.88;;;17.30;99.90;;;;;;5070752;28;20475;-81
2022/05/19 05:29:13;;;;;;;43.10;31.23;;;17.40;99.90;;;;;;5087797;28;20409;-81
2022/05/19 05:31:40;;;;;;;47.72;32.85;;;17.50;99.90;;;;;;5069937;28;20135;-83
2022/05/19 05:34:06;;;;;;;42.75;30.70;;;17.70;99.90;;;;;;5070575;28;20109;-83
2022/05/19 05:36:32;;;;;;;44.53;30.30;;;17.80;99.90;;;;;;5086565;28;20102;-84
2022/05/19 05:38:58;;;;;;;38.90;29.63;;;17.90;99.90;;;;;;5087634;28;20056;-84
2022/05/19 05:41:24;;;;;;;38.17;26.60;;;18.00;99.90;;;;;;5087151;28;20044;-83
2022/05/19 05:43:50;;;;;;;39.13;27.70;;;18.10;99.90;;;;;;5070870;28;20480;-83
2022/05/19 05:46:16;;;;;;;41.45;26.98;;;18.20;99.90;;;;;;5087594;28;20070;-82
2022/05/19 05:48:45;;;;;;;40.88;25.75;;;18.40;99.90;;;;;;5087308;28;20473;-79
2022/05/19 05:51:13;;;;;;;35.55;25.27;;;18.60;99.90;;;;;;5088000;28;20048;-82
2022/05/19 05:53:41;;;;;;;34.25;23.85;;;18.80;99.90;;;;;;5086831;28;20044;-83
2022/05/19 05:56:09;;;;;;;32.67;24.27;;;18.90;99.90;;;;;;5070997;28;20038;-83
2022/05/19 05:58:35;;;;;;;32.33;23.17;;;19.20;99.90;;;;;;5069857;28;20055;-84
2022/05/19 06:01:04;;;;;;;31.25;22.40;;;19.30;99.90;;;;;;5087548;28;20532;-86
2022/05/19 06:03:29;;;;;;;29.20;22.52;;;19.40;99.90;;;;;;5070393;28;20048;-82
2022/05/19 06:05:55;;;;;;;30.33;22.13;;;19.50;99.90;;;;;;5087932;28;20051;-83
2022/05/19 06:08:21;;;;;;;29.02;21.05;;;19.60;99.90;;;;;;5088703;28;20131;-83
2022/05/19 06:10:47;;;;;;;30.77;22.40;;;19.60;99.90;;;;;;5069639;28;20047;-83
2022/05/19 06:13:15;;;;;;;26.77;20.20;;;19.70;99.90;;;;;;5087800;28;20072;-82
2022/05/19 06:15:41;;;;;;;26.42;18.55;;;19.70;99.90;;;;;;5086642;28;20115;-81
2022/05/19 06:18:07;;;;;;;24.23;18.88;;;19.80;99.90;;;;;;5087175;28;20080;-82
2022/05/19 06:20:33;;;;;;;26.15;19.02;;;20.00;99.90;;;;;;5087948;28;20083;-81
2022/05/19 06:22:59;;;;;;;25.95;18.38;;;19.90;99.90;;;;;;5086261;28;20042;-81
2022/05/19 06:25:25;;;;;;;26.00;18.42;;;19.90;99.90;;;;;;5088216;28;20044;-81
2022/05/19 06:27:51;;;;;;;24.00;17.33;;;20.00;99.90;;;;;;5086050;28;20107;-81
2022/05/19 06:30:17;;;;;;;25.67;17.23;;;20.00;99.90;;;;;;5086624;28;20127;-81
2022/05/19 06:32:45;;;;;;;22.55;16.95;;;20.10;99.90;;;;;;5086396;28;20048;-83
2022/05/19 06:35:12;;;;;;;23.00;17.02;;;20.10;99.90;;;;;;5086438;28;20504;-83
2022/05/19 06:37:38;;;;;;;21.23;16.63;;;20.20;99.90;;;;;;5086371;28;20040;-83
2022/05/19 06:40:05;;;;;;;22.08;15.82;;;20.30;99.90;;;;;;5068926;28;20516;-82
2022/05/19 06:42:31;;;;;;;20.33;15.57;;;20.40;99.90;;;;;;5086523;28;20267;-83
2022/05/19 06:44:57;;;;;;;24.75;16.88;;;20.40;99.90;;;;;;5087714;28;20036;-83
2022/05/19 06:47:23;;;;;;;22.98;15.55;;;20.50;99.90;;;;;;5088574;28;20040;-83
2022/05/19 06:49:54;;;;;;;22.65;15.65;;;20.40;99.90;;;;;;5068858;28;20039;-83
2022/05/19 06:52:30;;;;;;;24.02;16.80;;;20.30;99.90;;;;;;5086743;28;20093;-82
2022/05/19 06:54:58;;;;;;;19.88;13.93;;;20.20;99.90;;;;;;5087338;28;20043;-83
2022/05/19 06:57:26;;;;;;;14.45;11.93;;;20.10;99.90;;;;;;5085567;28;20048;-82
2022/05/19 06:59:53;;;;;;;19.40;13.05;;;20.00;99.90;;;;;;5086438;28;20055;-82
2022/05/19 07:02:21;;;;;;;16.10;12.32;;;19.90;99.90;;;;;;5085927;28;20040;-82
2022/05/19 07:04:47;;;;;;;15.13;11.55;;;19.70;99.90;;;;;;5087173;28;20120;-83
2022/05/19 07:07:13;;;;;;;22.38;12.88;;;19.70;99.90;;;;;;5073037;28;20036;-82
2022/05/19 07:09:40;;;;;;;19.95;13.20;;;19.50;99.90;;;;;;5094024;28;20048;-83
2022/05/19 07:12:07;;;;;;;19.05;12.88;;;19.40;99.90;;;;;;5090700;28;20109;-80
2022/05/19 07:14:33;;;;;;;18.77;13.55;;;19.30;99.90;;;;;;5087603;28;20063;-80
2022/05/19 07:17:00;;;;;;;30.45;15.13;;;19.30;99.90;;;;;;5087799;28;20040;-81
2022/05/19 07:22:19;;;;;;;23.52;14.35;;;19.30;99.90;;;;;;5087899;28;20386;-81
2022/05/19 07:24:46;;;;;;;20.35;14.98;;;19.30;99.90;;;;;;5088000;28;20385;-81
2022/05/19 07:27:12;;;;;;;23.73;15.23;;;20.00;99.90;;;;;;5086819;28;20071;-80
2022/05/19 07:29:39;;;;;;;20.65;15.32;;;19.40;99.90;;;;;;5088406;28;20043;-80
2022/05/19 07:32:05;;;;;;;22.10;15.50;;;19.40;99.90;;;;;;5086365;28;20497;-77
2022/05/19 07:34:33;;;;;;;25.65;15.02;;;19.40;99.90;;;;;;5087335;28;20052;-78
2022/05/19 07:36:59;;;;;;;22.02;15.60;;;19.50;99.90;;;;;;5086935;28;20044;-77
2022/05/19 07:39:25;;;;;;;25.25;15.93;;;19.40;99.90;;;;;;5087272;28;20545;-78
2022/05/19 07:41:53;;;;;;;20.63;14.63;;;19.30;99.90;;;;;;5089587;28;20044;-78
2022/05/19 07:44:18;;;;;;;21.33;13.73;;;19.40;99.90;;;;;;5089415;28;20048;-78
2022/05/19 07:46:44;;;;;;;18.60;11.98;;;19.30;99.90;;;;;;5091138;28;20047;-78
2022/05/19 07:49:11;;;;;;;20.98;9.02;;;19.30;99.90;;;;;;5090908;28;20260;-78
2022/05/19 07:51:40;;;;;;;19.88;8.68;;;19.20;99.90;;;;;;5091379;28;20040;-78
2022/05/19 07:54:12;;;;;;;19.00;8.10;;;19.20;99.90;;;;;;5089452;28;20067;-78
2022/05/19 07:56:39;;;;;;;17.23;7.90;;;19.10;99.90;;;;;;5089592;28;20048;-78
2022/05/19 07:59:05;;;;;;;18.15;7.75;;;19.10;99.90;;;;;;5072073;28;20043;-78
2022/05/19 08:01:31;;;;;;;12.00;6.78;;;19.20;99.90;;;;;;5056141;28;20055;-77
2022/05/19 08:03:58;;;;;;;16.38;7.50;;;19.10;99.90;;;;;;5072526;28;20476;-78
2022/05/19 08:06:24;;;;;;;9.98;6.65;;;19.20;99.90;;;;;;5088541;28;20122;-78
2022/05/19 08:08:51;;;;;;;15.13;6.65;;;19.20;99.90;;;;;;5056573;28;20044;-78
2022/05/19 08:11:16;;;;;;;11.73;6.20;;;19.30;99.90;;;;;;5071699;28;20473;-78
2022/05/19 08:16:27;;;;;;;12.35;6.00;;;19.50;99.90;;;;;;5075277;28;20032;-79
2022/05/19 08:18:52;;;;;;;14.00;6.30;;;19.60;99.90;;;;;;5071800;28;20131;-78
2022/05/19 08:21:18;;;;;;;11.45;5.22;;;19.60;99.90;;;;;;5089350;28;20048;-78
2022/05/19 08:23:47;;;;;;;8.57;5.15;;;19.70;99.90;;;;;;5090099;28;20097;-79
2022/05/19 08:26:14;;;;;;;8.48;5.03;;;19.70;99.90;;;;;;5089353;28;20500;-79
2022/05/19 08:28:41;;;;;;;11.85;4.47;;;19.80;99.90;;;;;;5088330;28;20048;-78
2022/05/19 08:31:11;;;;;;;9.18;4.50;;;19.80;99.90;;;;;;5089139;28;20078;-78
2022/05/19 08:33:38;;;;;;;7.18;4.43;;;19.80;99.90;;;;;;5088861;28;20078;-78
2022/05/19 08:36:05;;;;;;;11.18;4.50;;;19.80;99.90;;;;;;5088445;28;20127;-78
2022/05/19 08:38:31;;;;;;;7.45;4.03;;;19.80;99.90;;;;;;5089159;28;20558;-79
2022/05/19 08:41:02;;;;;;;6.45;4.15;;;19.80;99.90;;;;;;5071598;28;20059;-79
2022/05/19 08:43:44;;;;;;;9.45;4.82;;;19.50;99.90;;;;;;5088906;28;20079;-78
2022/05/19 08:46:18;;;;;;;8.73;4.30;;;19.80;99.90;;;;;;5088733;28;20050;-78
2022/05/19 08:48:46;;;;;;;9.55;5.38;;;19.90;99.90;;;;;;5089997;28;20099;-78
2022/05/19 08:51:13;;;;;;;11.85;5.35;;;19.80;99.90;;;;;;5089983;28;20047;-78
2022/05/19 08:53:42;;;;;;;8.23;5.03;;;19.80;99.90;;;;;;5088115;28;20070;-78
2022/05/19 08:56:19;;;;;;;8.25;4.63;;;19.90;99.90;;;;;;5089142;28;20040;-78
2022/05/19 08:58:59;;;;;;;10.38;5.28;;;20.10;99.90;;;;;;5087745;28;20134;-78
2022/05/19 09:01:37;;;;;;;8.30;4.95;;;20.20;99.90;;;;;;5088694;28;20126;-78
2022/05/19 09:04:09;;;;;;;12.68;4.85;;;20.50;99.90;;;;;;5090473;28;20093;-79
2022/05/19 09:09:58;;;;;;;9.50;4.25;;;20.90;99.90;;;;;;5074152;28;20135;-78
2022/05/19 09:12:26;;;;;;;7.90;4.57;;;21.20;99.90;;;;;;5088611;28;20044;-79
2022/05/19 09:14:52;;;;;;;8.25;4.28;;;21.30;99.90;;;;;;5087773;28;20133;-79
2022/05/19 09:17:25;;;;;;;6.88;4.10;;;21.40;99.90;;;;;;5071662;28;20496;-78
2022/05/19 09:19:57;;;;;;;7.72;4.57;;;21.60;99.90;;;;;;5088723;28;20040;-79
2022/05/19 09:22:33;;;;;;;7.97;4.53;;;21.70;99.90;;;;;;5089238;28;20040;-79
2022/05/19 09:25:08;;;;;;;6.40;3.72;;;21.70;99.90;;;;;;5088049;28;20051;-79
2022/05/19 09:27:38;;;;;;;7.00;3.97;;;21.90;99.90;;;;;;5087656;28;20130;-80
2022/05/19 09:30:07;;;;;;;8.20;4.47;;;22.00;99.90;;;;;;5088429;28;20040;-79
2022/05/19 09:32:45;;;;;;;6.97;3.35;;;22.20;99.90;;;;;;5086695;28;20047;-79
2022/05/19 09:35:24;;;;;;;8.00;3.97;;;22.40;99.90;;;;;;5087792;28;20074;-79
2022/05/19 09:38:17;;;;;;;7.93;3.55;;;22.50;99.90;;;;;;5088977;28;20040;-79
2022/05/19 09:40:47;;;;;;;7.53;4.18;;;22.70;99.90;;;;;;5087463;28;20048;-78
2022/05/19 09:43:30;;;;;;;10.50;4.03;;;22.80;99.90;;;;;;5071785;28;20062;-79
2022/05/19 09:46:31;;;;;;;7.10;3.97;;;22.90;99.90;;;;;;5088956;28;20052;-78
2022/05/19 09:49:03;;;;;;;3.70;3.20;;;23.00;99.90;;;;;;5088834;28;20093;-79
2022/05/19 09:51:40;;;;;;;7.20;3.83;;;23.00;99.90;;;;;;5070809;28;20048;-79
2022/05/19 09:54:06;;;;;;;7.78;3.88;;;23.00;99.90;;;;;;5087098;28;20109;-79
2022/05/19 09:56:42;;;;;;;5.20;3.80;;;23.10;99.90;;;;;;5088898;28;20224;-78
2022/05/19 09:59:14;;;;;;;6.72;3.65;;;23.10;99.90;;;;;;5086914;28;20484;-79
2022/05/19 10:01:45;;;;;;;5.90;3.10;;;23.30;99.90;;;;;;5088619;28;20374;-79
2022/05/19 10:04:37;;;;;;;6.10;3.60;;;23.40;99.90;;;;;;5086406;28;20044;-79
2022/05/19 10:07:44;;;;;;;5.60;3.43;;;23.50;99.90;;;;;;5086532;28;20052;-79
2022/05/19 10:10:26;;;;;;;6.65;3.88;;;23.60;99.90;;;;;;5069977;28;20399;-78
2022/05/19 10:12:56;;;;;;;6.67;3.50;;;23.60;99.90;;;;;;5088707;28;20059;-78
2022/05/19 10:15:26;;;;;;;6.85;3.90;;;23.80;99.90;;;;;;5087990;28;20282;-78
2022/05/19 10:18:11;;;;;;;7.85;4.40;;;23.80;99.90;;;;;;5089195;28;20039;-80
2022/05/19 10:20:45;;;;;;;6.00;3.78;;;23.90;99.90;;;;;;5071714;28;20040;-78
2022/05/19 10:23:35;;;;;;;9.93;3.30;;;24.10;99.90;;;;;;5088405;28;20050;-79
2022/05/19 10:26:23;;;;;;;4.68;3.40;;;24.20;99.90;;;;;;5089130;28;20071;-78
2022/05/19 10:32:01;;;;;;;6.07;3.20;;;24.60;99.90;;;;;;5086351;28;20079;-77
2022/05/19 10:34:49;;;;;;;10.35;4.25;;;25.00;99.90;;;;;;5086556;28;20504;-80
2022/05/19 10:37:41;;;;;;;11.27;4.25;;;25.10;99.90;;;;;;5087299;28;20052;-79
2022/05/19 10:40:28;;;;;;;10.20;4.13;;;25.30;99.90;;;;;;5067203;28;20060;-79
2022/05/19 10:43:05;;;;;;;8.40;4.70;;;25.50;99.90;;;;;;5087369;28;20461;-78
2022/05/19 10:45:39;;;;;;;6.75;3.83;;;25.60;99.90;;;;;;5085677;28;20184;-78
2022/05/19 10:48:24;;;;;;;5.05;3.38;;;25.70;99.90;;;;;;5088193;28;20051;-81
2022/05/19 10:51:11;;;;;;;11.65;4.90;;;25.60;99.90;;;;;;5087755;28;20048;-80
2022/05/19 10:54:10;;;;;;;12.40;7.60;;;25.50;99.90;;;;;;5086071;28;20044;-81
2022/05/19 10:56:54;;;;;;;5.60;3.42;;;25.40;99.90;;;;;;5088216;28;20040;-80
2022/05/19 11:00:10;;;;;;;5.00;3.42;;;25.30;99.90;;;;;;5087423;28;20661;-80
2022/05/19 11:02:51;;;;;;;4.18;2.72;;;25.30;99.90;;;;;;5064612;28;20083;-79
2022/05/19 11:05:25;;;;;;;5.38;2.80;;;25.40;99.90;;;;;;5088902;28;20056;-80
2022/05/19 11:08:07;;;;;;;5.03;3.13;;;25.60;99.90;;;;;;5090447;28;20044;-78
2022/05/19 11:10:42;;;;;;;4.65;3.40;;;25.80;99.90;;;;;;5088118;28;20040;-78
2022/05/19 11:13:23;;;;;;;4.40;3.00;;;25.90;99.90;;;;;;5088198;28;20052;-80
2022/05/19 11:16:16;;;;;;;6.22;3.35;;;25.90;99.90;;;;;;5086925;28;20043;-80
2022/05/19 11:18:55;;;;;;;6.20;4.20;;;26.00;99.90;;;;;;5087435;28;20071;-80
2022/05/19 11:21:38;;;;;;;6.90;4.90;;;26.20;99.70;;;;;;5087723;28;20378;-79
2022/05/19 11:24:22;;;;;;;8.02;3.90;;;26.30;99.90;;;;;;5086725;28;20048;-79
2022/05/19 11:26:53;;;;;;;5.85;3.55;;;26.30;99.90;;;;;;5088045;28;20478;-80
2022/05/19 11:29:24;;;;;;;8.57;3.65;;;26.30;99.90;;;;;;5086975;28;20040;-80
2022/05/19 11:32:12;;;;;;;8.70;3.90;;;26.20;99.90;;;;;;5087266;28;20435;-80
2022/05/19 11:34:51;;;;;;;4.53;3.50;;;26.00;99.10;;;;;;5085972;28;20056;-79
2022/05/19 11:37:31;;;;;;;4.47;2.92;;;25.90;99.90;;;;;;5068620;28;20448;-81
2022/05/19 11:40:20;;;;;;;6.50;3.13;;;26.00;99.90;;;;;;5087831;28;20055;-80
2022/05/19 11:42:53;;;;;;;6.25;3.78;;;26.10;98.70;;;;;;5086893;28;20048;-80
2022/05/19 11:45:34;;;;;;;6.93;5.15;;;26.20;99.90;;;;;;5086197;28;20032;-83
2022/05/19 11:57:04;;;;;;;;;;;26.10;99.90;;;;;;5086078;28;20108;-81
2022/05/19 11:59:30;;;;;;;7.68;4.47;;;26.10;97.20;;;;;;5086366;28;19919;-81
2022/05/19 12:01:56;;;;;;;5.70;4.32;;;26.10;99.90;;;;;;5086656;28;20155;-81
2022/05/19 12:04:29;;;;;;;10.35;4.90;;;26.10;99.90;;;;;;5085313;28;20102;-81
2022/05/19 12:07:06;;;;;;;8.55;6.32;;;26.10;99.90;;;;;;5086385;28;20044;-80
2022/05/19 12:09:34;;;;;;;8.63;6.80;;;26.00;99.90;;;;;;5087150;28;20043;-80
2022/05/19 12:12:30;;;;;;;9.73;8.10;;;25.90;99.90;;;;;;5086441;28;20040;-80
2022/05/19 12:15:15;;;;;;;9.77;7.53;;;25.80;99.90;;;;;;5085980;28;20504;-81
2022/05/19 12:17:51;;;;;;;12.00;8.43;;;25.60;99.90;;;;;;5087234;28;20052;-80
2022/05/19 12:20:38;;;;;;;10.77;8.35;;;25.40;99.90;;;;;;5084679;28;20396;-80
2022/05/19 12:23:29;;;;;;;12.48;8.10;;;25.30;99.90;;;;;;5085495;28;20109;-81
2022/05/19 12:26:00;;;;;;;13.82;10.68;;;25.20;99.90;;;;;;5085707;28;20046;-81
2022/05/19 12:28:48;;;;;;;14.23;10.02;;;25.00;99.90;;;;;;5071217;28;20088;-80
2022/05/19 12:34:08;;;;;;;13.25;9.63;;;24.80;99.90;;;;;;5089109;28;20048;-80
2022/05/19 12:36:53;;;;;;;12.90;9.73;;;24.70;99.90;;;;;;5089162;28;20066;-82
2022/05/19 12:39:29;;;;;;;10.80;9.13;;;24.70;99.90;;;;;;5073300;28;20083;-80
2022/05/19 12:42:10;;;;;;;15.25;10.15;;;24.60;99.90;;;;;;5072021;28;20039;-80
2022/05/19 12:44:35;;;;;;;10.75;7.55;;;24.50;99.90;;;;;;5090765;28;20052;-82
2022/05/19 12:47:10;;;;;;;11.63;8.15;;;24.40;99.90;;;;;;5090076;28;20093;-82
2022/05/19 12:49:56;;;;;;;10.35;7.65;;;24.20;99.90;;;;;;5090269;28;20343;-82
2022/05/19 12:52:24;;;;;;;11.55;7.78;;;24.10;99.90;;;;;;5090229;28;20048;-82
2022/05/19 12:55:24;;;;;;;14.05;7.70;;;24.00;99.90;;;;;;5087735;28;20048;-81
2022/05/19 12:57:58;;;;;;;13.65;7.40;;;23.90;99.90;;;;;;5090141;28;20079;-81
2022/05/19 13:00:36;;;;;;;10.80;6.63;;;23.70;99.90;;;;;;5071604;28;20044;-81
2022/05/19 13:03:15;;;;;;;11.10;7.05;;;23.50;99.90;;;;;;5088022;28;20563;-81
2022/05/19 13:05:54;;;;;;;5.95;4.55;;;23.20;99.90;;;;;;5090203;28;20051;-81
2022/05/19 13:08:34;;;;;;;5.03;2.38;;;22.80;99.90;;;;;;5089687;28;20374;-81
2022/05/19 13:11:04;;;;;;;3.67;1.67;;;22.20;99.90;;;;;;5072887;28;20393;-81
2022/05/19 13:13:39;;;;;;;4.97;1.58;;;21.50;99.90;;;;;;5097076;28;20047;-81
2022/05/19 13:16:11;;;;;;;3.42;2.40;;;21.00;99.90;;;;;;5093522;28;20516;-81
2022/05/19 13:19:01;;;;;;;5.18;2.88;;;20.70;99.90;;;;;;5092231;28;20051;-80